logo
Search for airport 
image banner adimage banner adimage banner ad
image banner ad

OYQN - Qishn

Located in , Yemen

ICAO - OYQN, IATA - IHN

Data provided by Airmate  

General information

Coordinates: N15°24'60" E51°40'60"
Elevation is 100 feet MSL.
 
View others Airports in Al Mahrah Governorate

Operational data

Special qualification required
Current time UTC:
Current local time:
Weather at : - ( 0 km )
METAR: CZBF 132005Z AUTO 36005KT 340V060 9SM -RA OVC055 09/06 A2941 RMK SLP964
View NOTAMs / SUP AIP / TFR affecting this airport [VIEW]
Communications frequencies: [VIEW]

Runways:

RWY identifierQFULength (ft)Width (ft)SurfaceLDA (ft)
15328198UNK
33328198UNK
05328198UNK
23328198UNK

Airport contact information

Address: Yemen

Satellite view of OYQN